Lawton Fort Sill Regional Airport Lawton US
ICAO: KLAW
IATA: LAW
Category: Medium
Scheduled Services: No

Elevation: 1110 ft
TransAlt. 18000 ft.

Airport Communications:
FORT SILL APP/DEP:120.55
ATIS:120.75
CTAF:119.9
GND:121.9
TWR:119.9
UNICOM:122.95

KLAW Zoom In..

If you have problems with the map follow the link
https://www.worldairports.se/pages/airport.php?
ICAO=KLAW

Runways:

(A) RW 17 length 8599 ft width 150 ft
---- / hdg 171

(B) RW 35 length 8599 ft width 150 ft
ILS 109.10 / hdg 351

Location; KLAW
Day. 18 / Time. 07.53 Zulu
* Altimeter: 30.43
* Temperature: 13° c. 55.4°f.
* Wind from: 000° Speed 00 kn.
Dewpoint: 10° c.
Visibility: 10 Statute Miles.
Clouds: Broken 6000 ft.
Clouds: Overcast 9500 ft.

KLAW 180753Z AUTO 00000KT 10SM BKN060 OVC095 13/10 A3043 RMK AO2 SLP301 T01280100


Wind - Calm.

 
 
jpsmedia.com for Web Design worldairports.se 2018   terms of use